sensor_id;sensor_type;location;lat;lon;timestamp;temperature;humidity
19110;DHT22;9687;50.836;12.060;2023-04-03T01:42:58;6.80;73.80
19110;DHT22;9687;50.836;12.060;2023-04-03T01:45:26;6.80;73.80
19110;DHT22;9687;50.836;12.060;2023-04-03T01:47:53;6.70;73.40
19110;DHT22;9687;50.836;12.060;2023-04-03T01:50:21;6.80;73.60
19110;DHT22;9687;50.836;12.060;2023-04-03T01:52:48;6.70;73.60
19110;DHT22;9687;50.836;12.060;2023-04-03T01:55:15;6.70;73.60
19110;DHT22;9687;50.836;12.060;2023-04-03T01:57:42;6.70;73.40
19110;DHT22;9687;50.836;12.060;2023-04-03T02:00:12;6.70;73.20
19110;DHT22;9687;50.836;12.060;2023-04-03T02:02:39;6.70;73.30
19110;DHT22;9687;50.836;12.060;2023-04-03T02:05:06;6.70;73.20
19110;DHT22;9687;50.836;12.060;2023-04-03T02:07:34;6.70;73.20
19110;DHT22;9687;50.836;12.060;2023-04-03T02:10:01;6.60;73.10
19110;DHT22;9687;50.836;12.060;2023-04-03T02:12:28;6.70;73.20
19110;DHT22;9687;50.836;12.060;2023-04-03T02:14:56;6.60;73.10
19110;DHT22;9687;50.836;12.060;2023-04-03T02:17:24;6.60;73.10
19110;DHT22;9687;50.836;12.060;2023-04-03T02:19:51;6.60;73.10
19110;DHT22;9687;50.836;12.060;2023-04-03T02:22:18;6.60;73.10
19110;DHT22;9687;50.836;12.060;2023-04-03T02:24:46;6.60;73.10
19110;DHT22;9687;50.836;12.060;2023-04-03T02:27:13;6.60;73.90
19110;DHT22;9687;50.836;12.060;2023-04-03T02:29:40;6.60;73.10
19110;DHT22;9687;50.836;12.060;2023-04-03T02:32:07;6.60;73.10
19110;DHT22;9687;50.836;12.060;2023-04-03T02:34:36;6.60;73.10
19110;DHT22;9687;50.836;12.060;2023-04-03T02:37:03;6.50;73.00
19110;DHT22;9687;50.836;12.060;2023-04-03T02:39:30;6.50;73.00
19110;DHT22;9687;50.836;12.060;2023-04-03T02:41:58;6.50;73.00
19110;DHT22;9687;50.836;12.060;2023-04-03T04:46:03;5.80;73.40
19110;DHT22;9687;50.836;12.060;2023-04-03T04:48:31;5.80;72.80
19110;DHT22;9687;50.836;12.060;2023-04-03T04:50:59;5.80;73.60
19110;DHT22;9687;50.836;12.060;2023-04-03T04:53:26;5.80;73.50
19110;DHT22;9687;50.836;12.060;2023-04-03T04:55:53;5.80;73.50
19110;DHT22;9687;50.836;12.060;2023-04-03T04:58:21;5.80;73.50
19110;DHT22;9687;50.836;12.060;2023-04-03T05:00:48;5.80;73.60
19110;DHT22;9687;50.836;12.060;2023-04-03T05:03:16;5.80;73.70
19110;DHT22;9687;50.836;12.060;2023-04-03T05:05:43;5.70;73.60
19110;DHT22;9687;50.836;12.060;2023-04-03T05:08:12;5.70;73.70
19110;DHT22;9687;50.836;12.060;2023-04-03T05:10:39;5.70;73.70
19110;DHT22;9687;50.836;12.060;2023-04-03T05:13:07;5.70;73.70
19110;DHT22;9687;50.836;12.060;2023-04-03T05:15:35;5.70;73.70
19110;DHT22;9687;50.836;12.060;2023-04-03T05:18:02;5.70;73.80
19110;DHT22;9687;50.836;12.060;2023-04-03T05:20:32;5.70;73.90
19110;DHT22;9687;50.836;12.060;2023-04-03T05:23:00;5.70;74.00
19110;DHT22;9687;50.836;12.060;2023-04-03T05:25:27;5.70;74.20
19110;DHT22;9687;50.836;12.060;2023-04-03T05:27:54;5.70;73.90
19110;DHT22;9687;50.836;12.060;2023-04-03T05:30:21;5.70;73.90
19110;DHT22;9687;50.836;12.060;2023-04-03T05:32:49;5.70;73.80
19110;DHT22;9687;50.836;12.060;2023-04-03T05:35:16;5.80;73.90
19110;DHT22;9687;50.836;12.060;2023-04-03T05:37:45;5.70;73.80
19110;DHT22;9687;50.836;12.060;2023-04-03T05:40:12;5.70;73.80
19110;DHT22;9687;50.836;12.060;2023-04-03T05:42:39;5.70;73.80
19110;DHT22;9687;50.836;12.060;2023-04-03T05:45:07;5.70;73.70
19110;DHT22;9687;50.836;12.060;2023-04-03T05:47:34;5.70;73.10
19110;DHT22;9687;50.836;12.060;2023-04-03T05:50:02;5.70;73.60
19110;DHT22;9687;50.836;12.060;2023-04-03T05:52:30;5.70;73.40
19110;DHT22;9687;50.836;12.060;2023-04-03T05:54:58;5.80;73.50
19110;DHT22;9687;50.836;12.060;2023-04-03T05:57:25;5.80;73.50
19110;DHT22;9687;50.836;12.060;2023-04-03T05:59:53;5.70;73.40
19110;DHT22;9687;50.836;12.060;2023-04-03T06:02:21;5.70;73.40
19110;DHT22;9687;50.836;12.060;2023-04-03T06:04:48;5.80;73.40
19110;DHT22;9687;50.836;12.060;2023-04-03T06:07:17;5.80;73.40
19110;DHT22;9687;50.836;12.060;2023-04-03T06:09:45;5.80;73.30
19110;DHT22;9687;50.836;12.060;2023-04-03T06:12:13;5.80;73.10
19110;DHT22;9687;50.836;12.060;2023-04-03T06:14:41;5.80;73.20
19110;DHT22;9687;50.836;12.060;2023-04-03T06:17:08;5.80;73.10
19110;DHT22;9687;50.836;12.060;2023-04-03T06:19:37;5.80;73.10
19110;DHT22;9687;50.836;12.060;2023-04-03T06:22:05;5.80;73.10
19110;DHT22;9687;50.836;12.060;2023-04-03T06:24:32;5.90;73.10
19110;DHT22;9687;50.836;12.060;2023-04-03T06:26:59;5.90;73.00
19110;DHT22;9687;50.836;12.060;2023-04-03T06:29:28;5.90;72.90
19110;DHT22;9687;50.836;12.060;2023-04-03T06:31:55;5.90;72.70
19110;DHT22;9687;50.836;12.060;2023-04-03T06:34:22;5.90;72.50
19110;DHT22;9687;50.836;12.060;2023-04-03T06:36:50;5.90;72.40
19110;DHT22;9687;50.836;12.060;2023-04-03T06:39:18;5.90;72.50
19110;DHT22;9687;50.836;12.060;2023-04-03T06:41:47;5.90;72.40
19110;DHT22;9687;50.836;12.060;2023-04-03T06:44:15;5.90;72.40
19110;DHT22;9687;50.836;12.060;2023-04-03T07:47:37;6.00;70.90
19110;DHT22;9687;50.836;12.060;2023-04-03T07:50:07;6.10;70.70
19110;DHT22;9687;50.836;12.060;2023-04-03T07:52:36;6.10;70.60
19110;DHT22;9687;50.836;12.060;2023-04-03T08:47:53;11.40;59.00
19110;DHT22;9687;50.836;12.060;2023-04-03T08:50:23;12.00;56.50
19110;DHT22;9687;50.836;12.060;2023-04-03T08:52:55;12.10;55.10
19110;DHT22;9687;50.836;12.060;2023-04-03T08:55:23;12.00;54.00
19110;DHT22;9687;50.836;12.060;2023-04-03T08:57:54;11.80;54.00
19110;DHT22;9687;50.836;12.060;2023-04-03T09:00:24;11.90;54.80
19110;DHT22;9687;50.836;12.060;2023-04-03T09:02:55;12.40;55.00
19110;DHT22;9687;50.836;12.060;2023-04-03T09:05:27;12.80;53.50
19110;DHT22;9687;50.836;12.060;2023-04-03T09:08:00;13.10;53.70
19110;DHT22;9687;50.836;12.060;2023-04-03T09:10:32;13.40;52.20
19110;DHT22;9687;50.836;12.060;2023-04-03T09:13:01;13.50;51.20
19110;DHT22;9687;50.836;12.060;2023-04-03T09:15:32;13.70;51.30
19110;DHT22;9687;50.836;12.060;2023-04-03T09:18:02;14.00;50.70
19110;DHT22;9687;50.836;12.060;2023-04-03T09:20:35;14.30;49.70
19110;DHT22;9687;50.836;12.060;2023-04-03T09:23:09;14.50;49.60
19110;DHT22;9687;50.836;12.060;2023-04-03T09:25:41;14.70;49.30
19110;DHT22;9687;50.836;12.060;2023-04-03T09:28:09;14.90;48.70
19110;DHT22;9687;50.836;12.060;2023-04-03T09:30:37;14.90;47.00
19110;DHT22;9687;50.836;12.060;2023-04-03T09:33:06;14.90;47.10
19110;DHT22;9687;50.836;12.060;2023-04-03T09:35:33;14.90;47.20
19110;DHT22;9687;50.836;12.060;2023-04-03T09:38:14;15.00;46.90
19110;DHT22;9687;50.836;12.060;2023-04-03T09:40:42;15.00;45.70
19110;DHT22;9687;50.836;12.060;2023-04-03T09:43:19;14.90;46.40
19110;DHT22;9687;50.836;12.060;2023-04-03T09:45:47;14.80;45.80
19110;DHT22;9687;50.836;12.060;2023-04-03T09:48:17;14.80;46.40
19110;DHT22;9687;50.836;12.060;2023-04-03T09:50:55;14.90;46.70
19110;DHT22;9687;50.836;12.060;2023-04-03T09:53:26;15.10;47.20
19110;DHT22;9687;50.836;12.060;2023-04-03T09:55:54;15.30;46.20
19110;DHT22;9687;50.836;12.060;2023-04-03T09:58:25;15.20;44.10
19110;DHT22;9687;50.836;12.060;2023-04-03T10:00:54;15.00;43.30
19110;DHT22;9687;50.836;12.060;2023-04-03T10:03:25;14.80;42.70
19110;DHT22;9687;50.836;12.060;2023-04-03T10:05:53;14.50;42.50
19110;DHT22;9687;50.836;12.060;2023-04-03T10:08:22;14.10;42.50
19110;DHT22;9687;50.836;12.060;2023-04-03T10:13:49;13.30;42.60
19110;DHT22;9687;50.836;12.060;2023-04-03T10:16:18;12.80;42.70
19110;DHT22;9687;50.836;12.060;2023-04-03T10:18:49;12.50;43.60
19110;DHT22;9687;50.836;12.060;2023-04-03T10:21:20;12.30;44.20
19110;DHT22;9687;50.836;12.060;2023-04-03T10:23:54;12.50;45.10
19110;DHT22;9687;50.836;12.060;2023-04-03T10:26:29;12.60;44.70
19110;DHT22;9687;50.836;12.060;2023-04-03T10:29:01;12.80;44.70
19110;DHT22;9687;50.836;12.060;2023-04-03T10:31:31;13.00;44.60
19110;DHT22;9687;50.836;12.060;2023-04-03T10:34:03;13.20;44.50
19110;DHT22;9687;50.836;12.060;2023-04-03T10:36:34;13.20;44.70
19110;DHT22;9687;50.836;12.060;2023-04-03T10:39:06;13.30;44.50
19110;DHT22;9687;50.836;12.060;2023-04-03T10:41:39;13.10;44.20
19110;DHT22;9687;50.836;12.060;2023-04-03T10:44:14;12.90;44.20
19110;DHT22;9687;50.836;12.060;2023-04-03T10:46:43;12.60;44.50
19110;DHT22;9687;50.836;12.060;2023-04-03T13:51:05;10.20;46.80
19110;DHT22;9687;50.836;12.060;2023-04-03T13:53:34;10.20;47.30
19110;DHT22;9687;50.836;12.060;2023-04-03T13:56:09;10.20;47.30
19110;DHT22;9687;50.836;12.060;2023-04-03T13:58:36;10.10;47.10
19110;DHT22;9687;50.836;12.060;2023-04-03T14:01:09;10.10;47.00
19110;DHT22;9687;50.836;12.060;2023-04-03T14:03:40;10.10;47.10
19110;DHT22;9687;50.836;12.060;2023-04-03T14:06:12;10.10;47.40
19110;DHT22;9687;50.836;12.060;2023-04-03T14:12:21;10.00;47.00
19110;DHT22;9687;50.836;12.060;2023-04-03T14:14:52;9.90;48.10
19110;DHT22;9687;50.836;12.060;2023-04-03T14:24:09;9.90;49.00
19110;DHT22;9687;50.836;12.060;2023-04-03T14:26:37;9.90;49.20
19110;DHT22;9687;50.836;12.060;2023-04-03T14:29:04;9.90;49.20
19110;DHT22;9687;50.836;12.060;2023-04-03T14:31:31;10.00;48.30
19110;DHT22;9687;50.836;12.060;2023-04-03T14:33:59;10.00;48.20
19110;DHT22;9687;50.836;12.060;2023-04-03T14:36:28;9.90;48.60
19110;DHT22;9687;50.836;12.060;2023-04-03T14:38:56;9.90;48.60
19110;DHT22;9687;50.836;12.060;2023-04-03T14:41:25;9.80;48.60
19110;DHT22;9687;50.836;12.060;2023-04-03T14:43:53;9.80;48.50
19110;DHT22;9687;50.836;12.060;2023-04-03T14:46:22;9.80;48.70
19110;DHT22;9687;50.836;12.060;2023-04-03T14:48:51;9.80;48.80
19110;DHT22;9687;50.836;12.060;2023-04-03T14:51:18;9.80;48.70
19110;DHT22;9687;50.836;12.060;2023-04-03T14:54:01;10.70;48.30
19110;DHT22;9687;50.836;12.060;2023-04-03T14:56:29;9.70;48.40
19110;DHT22;9687;50.836;12.060;2023-04-03T14:58:57;9.70;48.50
19110;DHT22;9687;50.836;12.060;2023-04-03T15:01:25;9.60;48.50
19110;DHT22;9687;50.836;12.060;2023-04-03T15:03:52;9.60;48.60
19110;DHT22;9687;50.836;12.060;2023-04-03T15:06:20;9.60;48.70
19110;DHT22;9687;50.836;12.060;2023-04-03T15:08:48;9.50;48.60
19110;DHT22;9687;50.836;12.060;2023-04-03T15:11:15;9.50;48.70
19110;DHT22;9687;50.836;12.060;2023-04-03T15:13:44;9.50;48.90
19110;DHT22;9687;50.836;12.060;2023-04-03T15:16:12;9.40;48.80
19110;DHT22;9687;50.836;12.060;2023-04-03T15:18:41;9.40;48.90
19110;DHT22;9687;50.836;12.060;2023-04-03T15:21:08;9.10;49.30
19110;DHT22;9687;50.836;12.060;2023-04-03T15:23:36;9.40;49.00
19110;DHT22;9687;50.836;12.060;2023-04-03T15:26:04;9.40;49.20
19110;DHT22;9687;50.836;12.060;2023-04-03T15:28:32;9.40;49.50
19110;DHT22;9687;50.836;12.060;2023-04-03T15:31:02;9.40;49.60
19110;DHT22;9687;50.836;12.060;2023-04-03T15:33:30;9.40;49.80
19110;DHT22;9687;50.836;12.060;2023-04-03T15:35:58;9.40;50.00
19110;DHT22;9687;50.836;12.060;2023-04-03T15:38:25;9.40;49.80
19110;DHT22;9687;50.836;12.060;2023-04-03T15:40:53;9.40;49.60
19110;DHT22;9687;50.836;12.060;2023-04-03T15:43:20;9.00;49.30
19110;DHT22;9687;50.836;12.060;2023-04-03T15:45:48;9.30;49.80
19110;DHT22;9687;50.836;12.060;2023-04-03T15:48:18;9.30;50.00
19110;DHT22;9687;50.836;12.060;2023-04-03T16:51:44;8.50;51.70
19110;DHT22;9687;50.836;12.060;2023-04-03T16:54:12;8.50;51.00
19110;DHT22;9687;50.836;12.060;2023-04-03T16:56:39;8.50;51.10
19110;DHT22;9687;50.836;12.060;2023-04-03T16:59:07;8.50;51.20
19110;DHT22;9687;50.836;12.060;2023-04-03T17:01:34;8.50;51.30
19110;DHT22;9687;50.836;12.060;2023-04-03T17:04:01;8.40;51.30
19110;DHT22;9687;50.836;12.060;2023-04-03T17:06:29;8.40;51.30
19110;DHT22;9687;50.836;12.060;2023-04-03T17:08:57;8.40;51.40
19110;DHT22;9687;50.836;12.060;2023-04-03T17:11:25;8.40;51.20
19110;DHT22;9687;50.836;12.060;2023-04-03T17:13:52;8.40;51.10
19110;DHT22;9687;50.836;12.060;2023-04-03T17:16:19;8.40;51.00
19110;DHT22;9687;50.836;12.060;2023-04-03T17:18:47;8.40;50.90
19110;DHT22;9687;50.836;12.060;2023-04-03T17:21:14;8.30;50.80
19110;DHT22;9687;50.836;12.060;2023-04-03T17:23:43;8.30;51.00
19110;DHT22;9687;50.836;12.060;2023-04-03T17:26:12;8.30;50.90
19110;DHT22;9687;50.836;12.060;2023-04-03T17:28:40;8.20;50.70
19110;DHT22;9687;50.836;12.060;2023-04-03T17:31:07;8.20;50.90
19110;DHT22;9687;50.836;12.060;2023-04-03T17:33:34;8.20;50.90
19110;DHT22;9687;50.836;12.060;2023-04-03T17:36:02;8.10;50.80
19110;DHT22;9687;50.836;12.060;2023-04-03T17:38:30;8.00;50.80
19110;DHT22;9687;50.836;12.060;2023-04-03T17:40:58;8.10;51.00
19110;DHT22;9687;50.836;12.060;2023-04-03T17:43:27;8.00;51.10
19110;DHT22;9687;50.836;12.060;2023-04-03T17:45:58;8.00;51.10
19110;DHT22;9687;50.836;12.060;2023-04-03T17:48:28;8.00;50.90
19110;DHT22;9687;50.836;12.060;2023-04-03T17:50:55;8.00;50.90
19110;DHT22;9687;50.836;12.060;2023-04-03T17:53:22;8.00;50.80
19110;DHT22;9687;50.836;12.060;2023-04-03T17:55:50;8.00;50.70
19110;DHT22;9687;50.836;12.060;2023-04-03T17:58:17;8.00;50.60
19110;DHT22;9687;50.836;12.060;2023-04-03T18:00:46;8.00;50.60
19110;DHT22;9687;50.836;12.060;2023-04-03T18:03:13;8.00;50.60
19110;DHT22;9687;50.836;12.060;2023-04-03T18:05:41;8.00;50.50
19110;DHT22;9687;50.836;12.060;2023-04-03T18:08:08;8.00;50.60
19110;DHT22;9687;50.836;12.060;2023-04-03T18:10:36;8.00;50.50
19110;DHT22;9687;50.836;12.060;2023-04-03T18:13:03;8.00;50.50
19110;DHT22;9687;50.836;12.060;2023-04-03T18:15:32;7.90;50.30
19110;DHT22;9687;50.836;12.060;2023-04-03T18:18:01;7.90;50.30
19110;DHT22;9687;50.836;12.060;2023-04-03T18:20:28;7.90;49.80
19110;DHT22;9687;50.836;12.060;2023-04-03T18:22:57;7.90;50.40
19110;DHT22;9687;50.836;12.060;2023-04-03T18:25:26;7.90;50.50
19110;DHT22;9687;50.836;12.060;2023-04-03T18:27:54;7.90;50.50
19110;DHT22;9687;50.836;12.060;2023-04-03T18:30:23;7.90;50.50
19110;DHT22;9687;50.836;12.060;2023-04-03T18:32:54;7.90;50.60
19110;DHT22;9687;50.836;12.060;2023-04-03T18:35:23;7.80;50.40
19110;DHT22;9687;50.836;12.060;2023-04-03T18:37:51;10.20;51.40
19110;DHT22;9687;50.836;12.060;2023-04-03T18:40:20;8.20;50.80
19110;DHT22;9687;50.836;12.060;2023-04-03T18:42:48;7.80;50.60
19110;DHT22;9687;50.836;12.060;2023-04-03T18:45:16;7.80;50.10
19110;DHT22;9687;50.836;12.060;2023-04-03T18:47:47;7.80;50.70
19110;DHT22;9687;50.836;12.060;2023-04-03T18:50:15;7.80;50.70
19110;DHT22;9687;50.836;12.060;2023-04-03T18:52:44;7.80;50.40
19110;DHT22;9687;50.836;12.060;2023-04-03T18:55:16;7.80;51.00
19110;DHT22;9687;50.836;12.060;2023-04-03T18:57:45;7.80;51.00
19110;DHT22;9687;50.836;12.060;2023-04-03T19:00:13;7.80;51.00
19110;DHT22;9687;50.836;12.060;2023-04-03T19:02:40;8.00;51.00
19110;DHT22;9687;50.836;12.060;2023-04-03T19:05:08;7.70;50.90
19110;DHT22;9687;50.836;12.060;2023-04-03T19:07:37;7.70;50.90
19110;DHT22;9687;50.836;12.060;2023-04-03T19:10:07;7.70;50.70
19110;DHT22;9687;50.836;12.060;2023-04-03T19:12:39;7.70;50.60
19110;DHT22;9687;50.836;12.060;2023-04-03T19:15:06;7.70;50.70
19110;DHT22;9687;50.836;12.060;2023-04-03T19:17:34;7.60;50.10
19110;DHT22;9687;50.836;12.060;2023-04-03T19:20:01;7.70;50.70
19110;DHT22;9687;50.836;12.060;2023-04-03T19:22:29;7.60;50.60
19110;DHT22;9687;50.836;12.060;2023-04-03T19:24:57;7.60;50.50
19110;DHT22;9687;50.836;12.060;2023-04-03T19:27:28;7.60;50.40
19110;DHT22;9687;50.836;12.060;2023-04-03T19:29:55;7.50;50.00
19110;DHT22;9687;50.836;12.060;2023-04-03T19:32:24;7.50;50.60
19110;DHT22;9687;50.836;12.060;2023-04-03T19:34:51;7.50;50.70
19110;DHT22;9687;50.836;12.060;2023-04-03T19:37:19;7.50;50.60
19110;DHT22;9687;50.836;12.060;2023-04-03T19:39:49;7.50;50.50
19110;DHT22;9687;50.836;12.060;2023-04-03T19:42:17;7.40;50.50
19110;DHT22;9687;50.836;12.060;2023-04-03T19:44:45;7.40;50.70
19110;DHT22;9687;50.836;12.060;2023-04-03T19:47:14;7.40;50.70
19110;DHT22;9687;50.836;12.060;2023-04-03T19:49:43;7.40;50.80
19110;DHT22;9687;50.836;12.060;2023-04-03T20:53:05;7.10;51.50
19110;DHT22;9687;50.836;12.060;2023-04-03T20:55:33;7.10;51.50
19110;DHT22;9687;50.836;12.060;2023-04-03T20:58:00;7.10;51.60
19110;DHT22;9687;50.836;12.060;2023-04-03T21:00:28;7.10;51.60
19110;DHT22;9687;50.836;12.060;2023-04-03T21:02:57;7.10;51.50
19110;DHT22;9687;50.836;12.060;2023-04-03T21:05:26;7.10;51.60
19110;DHT22;9687;50.836;12.060;2023-04-03T21:21:22;7.20;51.50
19110;DHT22;9687;50.836;12.060;2023-04-03T21:23:51;7.10;51.40
19110;DHT22;9687;50.836;12.060;2023-04-03T21:26:19;7.10;50.90
19110;DHT22;9687;50.836;12.060;2023-04-03T21:28:48;7.10;51.40
19110;DHT22;9687;50.836;12.060;2023-04-03T21:31:16;7.10;51.40
19110;DHT22;9687;50.836;12.060;2023-04-03T21:33:43;7.10;51.60
19110;DHT22;9687;50.836;12.060;2023-04-03T21:36:12;7.10;51.70
19110;DHT22;9687;50.836;12.060;2023-04-03T21:38:40;7.10;51.80
19110;DHT22;9687;50.836;12.060;2023-04-03T21:41:08;7.10;51.80
19110;DHT22;9687;50.836;12.060;2023-04-03T21:43:36;7.10;51.90
19110;DHT22;9687;50.836;12.060;2023-04-03T21:46:03;7.10;52.00
19110;DHT22;9687;50.836;12.060;2023-04-03T21:48:31;7.00;51.80
19110;DHT22;9687;50.836;12.060;2023-04-03T21:51:01;7.00;51.30
